Birmingham, AL

8:28 AM CST on December 18, 2014 (GMT -0600)
Sunny Meadows | Change Station
CLOSE
Current Station
Personal Weather Station
Location: Birmingham, AL
Elevation: 561 ft
Nearby Weather Stations

Elev 561 ft 33.38 °N, 86.72 °W | Updated 11 minutes ago

Mostly Cloudy
Mostly Cloudy
38.4 °F
Feels Like 38 °F
N
0.0
Wind Variable Wind from East
Gusts 1.0 mph

Today
High -- | Low -- °F
--% Chance of Precip.
Yesterday
High -- | Low -- °F
Precip. -- in
6:45 AM 4:41 PM
Waning Crescent, 14% visible
Pressure 30.24 in
Visibility 9.0 miles
Clouds Mostly Cloudy 7000 ft
Mostly Cloudy 10000 ft
Windchill 38 °F
Dew Point 26 °F
Humidity 60%
Rainfall 0.00 in
Snow Depth Not available.
UV 0 out of 12
Pollen 1.30 out of 12
Air Quality Not available.
Flu Activity Not available.
METAR KBHM 181353Z 00000KT 9SM BKN070 BKN100 03/01 A3023 RMK AO2 SLP239 T00330011

More Conditions Fewer Conditions

Pressure 30.24 in
Visibility 9.0 miles
Clouds Mostly Cloudy 7000 ft
Mostly Cloudy 10000 ft
Windchill 38 °F
Dew Point 26 °F
Humidity 60%
Rainfall 0.00 in
Snow Depth Not available.
UV 0 out of 12
Pollen 1.30 out of 12
Air Quality Not available.
Flu Activity Not available.
METAR KBHM 181353Z 00000KT 9SM BKN070 BKN100 03/01 A3023 RMK AO2 SLP239 T00330011

More Conditions Fewer Conditions

10-Day Weather Forecast

Almanac

Astronomy

Dec. 18, 2014 Rise Set
Actual Time
Civil Twilight
Nautical Twilight
Astronomical Twilight
Moon
Length of Visible Light
Length of Day
Tomorrow will be .
, % of the Moon is Illuminated

Today's Extremes

State Highs State Lows

Community

WunderPhotos

Upload Photos

1,778,929 photos uploaded!

WunderBlogs® & News

Nearby

Air Quality

  Air Quality AQ Index Pollutant
Not available.

Snow Depth

Station Depth Elevation

Earthquake Activity

City Distance Mag. Time & Date
Minimum magnitude displayed is 2.5.

Coastal Water Temperatures

Place Temperature

Nearby Weather Stations